Time;durP1;ratioP1;P1;durP2;ratioP2;P2;SDS_P1;SDS_P2;PMS_P1;PMS_P2;Temp;Humidity;BMP_temperature;BMP_pressure;BME280_temperature;BME280_humidity;BME280_pressure;Samples;Min_cycle;Max_cycle;Signal;HPM_P1;HPM_P2
2023/11/21 00:02:25;;;;;;;;;;;;;;;16.48;45.50;100597.28;5116583;28;1124;-49
2023/11/21 00:04:50;;;;;;;;;;;;;;;15.86;46.47;100602.78;5119617;28;1045;-50
2023/11/21 00:07:16;;;;;;;;;;;;;;;15.63;45.63;100604.13;5117072;28;1009;-47
2023/11/21 00:09:41;;;;;;;;;;;;;;;15.98;46.29;100599.81;5119546;28;1045;-47
2023/11/21 00:12:09;;;;;;;;;;;;;;;16.24;46.16;100604.19;5101806;28;1041;-46
2023/11/21 00:14:38;;;;;;;;;;;;;;;15.73;46.11;100609.59;5110529;28;1114;-45
2023/11/21 00:17:03;;;;;;;;;;;;;;;15.69;45.26;100614.78;5106135;28;2404;-47
2023/11/21 00:19:29;;;;;;;;;;;;;;;16.02;45.85;100609.94;5115406;28;2028;-50
2023/11/21 00:21:54;;;;;;;;;;;;;;;15.81;46.19;100611.00;5114815;28;995;-51
2023/11/21 00:24:20;;;;;;;;;;;;;;;15.59;45.52;100619.44;5098823;28;1042;-47
2023/11/21 00:26:48;;;;;;;;;;;;;;;16.45;45.52;100614.31;5099194;28;1380;-47
2023/11/21 00:29:17;;;;;;;;;;;;;;;15.93;46.27;100613.50;5111011;28;1095;-51
2023/11/21 00:31:43;;;;;;;;;;;;;;;15.70;45.89;100602.75;5103325;28;1078;-46
2023/11/21 00:34:09;;;;;;;;;;;;;;;15.57;45.26;100598.63;5093007;28;1458;-50
2023/11/21 00:36:34;;;;;;;;;;;;;;;15.42;44.70;100603.22;5113657;28;1097;-48
2023/11/21 00:39:02;;;;;;;;;;;;;;;15.31;44.58;100614.16;5111014;28;1913;-49
2023/11/21 00:41:28;;;;;;;;;;;;;;;16.54;45.60;100612.66;5105411;28;1093;-48
2023/11/21 00:43:54;;;;;;;;;;;;;;;15.74;46.57;100609.34;5117281;28;1119;-47
2023/11/21 00:46:21;;;;;;;;;;;;;;;15.51;45.81;100620.78;5100482;28;2396;-45
2023/11/21 00:48:47;;;;;;;;;;;;;;;15.43;45.26;100621.31;5091749;28;1353;-51
2023/11/21 00:51:13;;;;;;;;;;;;;;;16.54;45.67;100612.66;5118908;28;1049;-49
2023/11/21 00:53:39;;;;;;;;;;;;;;;15.87;46.29;100616.22;5107514;28;1029;-50
2023/11/21 00:56:05;;;;;;;;;;;;;;;15.62;45.90;100614.25;5108346;28;1143;-51
2023/11/21 00:58:30;;;;;;;;;;;;;;;15.39;45.29;100608.16;5107371;28;1969;-49
2023/11/21 01:00:56;;;;;;;;;;;;;;;16.34;45.84;100608.84;5084610;28;1066;-49
2023/11/21 01:03:21;;;;;;;;;;;;;;;16.01;46.36;100608.28;5107419;28;1200;-47
2023/11/21 01:05:49;;;;;;;;;;;;;;;15.71;46.26;100609.88;5098816;28;1038;-49
2023/11/21 01:08:15;;;;;;;;;;;;;;;15.52;45.47;100614.22;5098920;28;1063;-50
2023/11/21 01:10:40;;;;;;;;;;;;;;;15.35;45.20;100614.47;5103194;28;1069;-48
2023/11/21 01:13:07;;;;;;;;;;;;;;;16.17;45.95;100608.28;5100015;28;1143;-48
2023/11/21 01:15:32;;;;;;;;;;;;;;;15.67;46.13;100611.50;5093857;28;1888;-50
2023/11/21 01:17:58;;;;;;;;;;;;;;;15.43;45.71;100610.34;5098143;28;1977;-47
2023/11/21 01:20:24;;;;;;;;;;;;;;;15.36;45.09;100611.44;5109178;28;1078;-48
2023/11/21 01:22:49;;;;;;;;;;;;;;;15.76;45.62;100608.25;5106662;28;1120;-47
2023/11/21 01:25:16;;;;;;;;;;;;;;;15.99;46.04;100602.25;5084672;28;1541;-51
2023/11/21 01:27:42;;;;;;;;;;;;;;;15.52;45.96;100612.28;5106318;28;1088;-48
2023/11/21 01:30:10;;;;;;;;;;;;;;;15.42;45.26;100608.69;5097829;28;1302;-50
2023/11/21 01:32:35;;;;;;;;;;;;;;;16.08;45.96;100605.28;5117917;28;870;-49
2023/11/21 01:35:02;;;;;;;;;;;;;;;16.00;46.08;100595.66;5118070;28;1061;-48
2023/11/21 01:37:28;;;;;;;;;;;;;;;15.67;45.73;100599.72;5117731;28;1971;-52
2023/11/21 01:39:54;;;;;;;;;;;;;;;15.44;45.18;100612.00;5112121;28;1066;-50
2023/11/21 01:42:20;;;;;;;;;;;;;;;16.44;45.74;100602.50;5097504;28;1075;-50
2023/11/21 01:44:46;;;;;;;;;;;;;;;15.73;46.47;100607.69;5103183;28;1165;-50
2023/11/21 01:47:12;;;;;;;;;;;;;;;15.52;45.74;100601.34;5109099;28;2588;-50
2023/11/21 01:49:37;;;;;;;;;;;;;;;15.39;45.37;100597.19;5094583;28;1070;-51
2023/11/21 01:52:04;;;;;;;;;;;;;;;16.07;45.75;100593.50;5097602;28;1083;-52
2023/11/21 01:54:32;;;;;;;;;;;;;;;15.74;46.20;100597.56;5097432;28;1143;-49
2023/11/21 01:57:06;;;;;;;;;;;;;;;16.00;46.31;100595.66;5111262;28;851;-49
2023/11/21 01:59:36;;;;;;;;;;;;;;;16.55;45.83;100587.66;5099283;28;1913;-51
2023/11/21 02:02:09;;;;;;;;;;;;;;;15.81;46.23;100589.91;5099215;28;1284;-49
2023/11/21 02:04:36;;;;;;;;;;;;;;;15.69;45.49;100601.09;5105556;28;1188;-47
2023/11/21 02:07:05;;;;;;;;;;;;;;;15.50;45.06;100595.31;5103375;28;1106;-50
2023/11/21 02:09:31;;;;;;;;;;;;;;;15.46;45.20;100599.69;5081660;28;1409;-49
2023/11/21 02:11:58;;;;;;;;;;;;;;;16.51;45.79;100588.47;5096860;28;1066;-50
2023/11/21 02:14:24;;;;;;;;;;;;;;;15.76;46.51;100597.28;5087139;28;1118;-50
2023/11/21 02:16:51;;;;;;;;;;;;;;;15.58;45.65;100593.94;5083856;28;2228;-48
2023/11/21 02:19:25;;;;;;;;;;;;;;;15.42;45.05;100595.00;5097056;28;1997;-47
2023/11/21 02:21:54;;;;;;;;;;;;;;;16.29;45.67;100600.59;5097775;28;1129;-49
2023/11/21 02:24:23;;;;;;;;;;;;;;;15.69;46.09;100598.34;5088828;28;1173;-46
2023/11/21 02:26:51;;;;;;;;;;;;;;;15.43;45.96;100588.44;5082208;28;1098;-49
2023/11/21 02:29:21;;;;;;;;;;;;;;;16.13;46.06;100597.06;5088279;28;1591;-49
2023/11/21 02:31:52;;;;;;;;;;;;;;;15.82;46.38;100586.09;5079589;28;1101;-48
2023/11/21 02:34:17;;;;;;;;;;;;;;;15.76;46.37;100600.03;5098762;28;1089;-48
2023/11/21 02:36:43;;;;;;;;;;;;;;;16.41;45.71;100597.56;5102780;28;1186;-51
2023/11/21 02:39:10;;;;;;;;;;;;;;;15.83;46.36;100592.38;5086045;28;1982;-49
2023/11/21 02:41:36;;;;;;;;;;;;;;;15.70;45.40;100589.03;5109642;28;1030;-48
2023/11/21 02:44:02;;;;;;;;;;;;;;;16.30;46.04;100591.28;5105992;28;1035;-50
2023/11/21 02:46:27;;;;;;;;;;;;;;;16.13;46.14;100593.47;5096355;28;2526;-49
2023/11/21 02:48:54;;;;;;;;;;;;;;;15.71;46.08;100595.34;5108548;28;1106;-49
2023/11/21 02:51:20;;;;;;;;;;;;;;;15.56;45.32;100593.41;5097297;28;1240;-48
2023/11/21 02:53:46;;;;;;;;;;;;;;;16.54;45.62;100590.69;5096418;28;1014;-52
2023/11/21 02:56:12;;;;;;;;;;;;;;;16.07;46.37;100598.97;5112583;28;1262;-47
2023/11/21 02:58:37;;;;;;;;;;;;;;;15.70;46.14;100599.19;5104264;28;1914;-51
2023/11/21 03:01:05;;;;;;;;;;;;;;;15.60;45.32;100607.38;5095878;28;1145;-49
2023/11/21 03:03:31;;;;;;;;;;;;;;;16.26;45.94;100612.13;5078074;28;1334;-52
2023/11/21 03:05:56;;;;;;;;;;;;;;;15.74;46.09;100609.34;5115039;28;1111;-49
2023/11/21 03:08:22;;;;;;;;;;;;;;;15.56;45.34;100620.81;5107993;28;1096;-49
2023/11/21 03:10:48;;;;;;;;;;;;;;;15.49;44.97;100631.22;5116162;28;1064;-50
2023/11/21 03:13:13;;;;;;;;;;;;;;;15.58;45.16;100629.56;5104358;28;1114;-49
2023/11/21 03:15:39;;;;;;;;;;;;;;;16.62;45.43;100617.59;5095738;28;1835;-49
2023/11/21 03:18:04;;;;;;;;;;;;;;;15.92;45.88;100618.13;5096085;28;1905;-49
2023/11/21 03:20:30;;;;;;;;;;;;;;;15.68;45.55;100613.16;5096446;28;1070;-50
2023/11/21 03:22:56;;;;;;;;;;;;;;;15.54;44.86;100622.97;5108585;28;1513;-50
2023/11/21 03:25:23;;;;;;;;;;;;;;;15.46;44.50;100629.00;5102903;28;1029;-51
2023/11/21 03:27:49;;;;;;;;;;;;;;;16.50;45.57;100633.50;5116472;28;1092;-49
2023/11/21 03:30:15;;;;;;;;;;;;;;;15.81;46.06;100625.56;5109934;28;1072;-48
2023/11/21 03:32:41;;;;;;;;;;;;;;;15.58;45.72;100626.84;5101195;28;995;-49
2023/11/21 03:35:07;;;;;;;;;;;;;;;15.65;45.82;100621.91;5109748;28;1096;-48
2023/11/21 03:37:33;;;;;;;;;;;;;;;16.13;46.17;100612.66;5097003;28;1914;-48
2023/11/21 03:39:58;;;;;;;;;;;;;;;15.68;46.19;100613.16;5105243;28;1125;-47
2023/11/21 03:42:26;;;;;;;;;;;;;;;15.90;46.41;100601.16;5107920;28;1045;-50
2023/11/21 03:44:52;;;;;;;;;;;;;;;16.29;45.97;100610.75;5105346;28;1085;-48
2023/11/21 03:47:19;;;;;;;;;;;;;;;15.82;45.83;100607.19;5103877;28;2693;-50
2023/11/21 03:49:45;;;;;;;;;;;;;;;15.63;45.42;100613.16;5100178;28;1090;-48
2023/11/21 03:52:13;;;;;;;;;;;;;;;16.40;45.80;100609.66;5100015;28;1010;-45
2023/11/21 03:54:39;;;;;;;;;;;;;;;15.94;46.10;100610.47;5119602;28;1218;-48
2023/11/21 03:57:05;;;;;;;;;;;;;;;15.65;45.58;100610.94;5113517;28;1232;-48
2023/11/21 03:59:31;;;;;;;;;;;;;;;15.52;44.99;100625.19;5119483;28;1909;-50
2023/11/21 04:01:56;;;;;;;;;;;;;;;15.89;45.93;100625.03;5106934;28;1224;-48
2023/11/21 04:04:22;;;;;;;;;;;;;;;15.96;46.38;100629.41;5106234;28;1207;-47
2023/11/21 04:06:48;;;;;;;;;;;;;;;15.69;46.01;100636.72;5106599;28;1121;-49
2023/11/21 04:09:13;;;;;;;;;;;;;;;15.43;45.19;100635.84;5111636;28;1014;-47
2023/11/21 04:11:39;;;;;;;;;;;;;;;16.48;45.61;100627.47;5112764;28;994;-52
2023/11/21 04:14:04;;;;;;;;;;;;;;;15.87;45.87;100618.16;5113532;28;1044;-50
2023/11/21 04:16:30;;;;;;;;;;;;;;;15.75;46.16;100612.88;5102285;28;2422;-50
2023/11/21 04:18:55;;;;;;;;;;;;;;;16.53;45.60;100608.25;5118455;28;1911;-51
2023/11/21 04:21:21;;;;;;;;;;;;;;;15.90;45.81;100609.38;5114472;28;1026;-51
2023/11/21 04:23:46;;;;;;;;;;;;;;;15.68;45.33;100615.91;5105580;28;1049;-50
2023/11/21 04:26:12;;;;;;;;;;;;;;;16.44;45.83;100624.47;5119387;28;1090;-48
2023/11/21 04:28:37;;;;;;;;;;;;;;;15.91;46.00;100622.81;5105995;28;1153;-48
2023/11/21 04:31:03;;;;;;;;;;;;;;;15.69;45.33;100619.47;5107124;28;1061;-50
2023/11/21 04:33:28;;;;;;;;;;;;;;;16.25;45.87;100621.44;5109837;28;1082;-51
2023/11/21 04:35:54;;;;;;;;;;;;;;;15.79;45.67;100613.19;5110595;28;1030;-50
2023/11/21 04:38:20;;;;;;;;;;;;;;;15.57;45.48;100622.44;5100311;28;1970;-49
2023/11/21 04:40:45;;;;;;;;;;;;;;;16.05;45.77;100623.09;5098988;28;1509;-49
2023/11/21 04:43:11;;;;;;;;;;;;;;;16.23;46.05;100624.47;5104355;28;1081;-46
2023/11/21 04:45:37;;;;;;;;;;;;;;;16.13;46.02;100629.13;5110183;28;1756;-46
2023/11/21 04:48:02;;;;;;;;;;;;;;;17.37;44.54;100627.75;5116780;28;1073;-51
2023/11/21 04:50:28;;;;;;;;;;;;;;;16.50;46.03;100642.56;5089678;28;1097;-49
2023/11/21 04:52:53;;;;;;;;;;;;;;;16.10;45.81;100635.16;5116458;28;1117;-51
2023/11/21 04:55:19;;;;;;;;;;;;;;;15.90;45.06;100631.31;5106937;28;1109;-54
2023/11/21 04:57:45;;;;;;;;;;;;;;;15.90;44.79;100621.16;5100469;28;1966;-56
2023/11/21 05:00:11;;;;;;;;;;;;;;;15.78;44.25;100636.19;5098536;28;960;-56
2023/11/21 05:02:38;;;;;;;;;;;;;;;15.58;44.24;100637.78;5098417;28;1083;-58
2023/11/21 05:05:05;;;;;;;;;;;;;;;16.38;45.89;100642.84;5098568;28;1034;-57
2023/11/21 05:07:32;;;;;;;;;;;;;;;15.89;46.04;100632.41;5107875;28;947;-55
2023/11/21 05:09:57;;;;;;;;;;;;;;;15.71;45.14;100633.72;5097714;28;1119;-57
2023/11/21 05:12:23;;;;;;;;;;;;;;;16.11;45.94;100636.81;5109017;28;1133;-57
2023/11/21 05:14:49;;;;;;;;;;;;;;;16.00;46.03;100630.50;5098572;28;1009;-57
2023/11/21 05:17:15;;;;;;;;;;;;;;;15.72;45.68;100644.44;5113409;28;2196;-58
2023/11/21 05:19:40;;;;;;;;;;;;;;;15.61;45.02;100634.50;5099501;28;1917;-56
2023/11/21 05:22:06;;;;;;;;;;;;;;;15.65;45.38;100652.06;5098307;28;1002;-55
2023/11/21 05:24:31;;;;;;;;;;;;;;;16.20;46.23;100640.66;5097895;28;1098;-56
2023/11/21 05:26:57;;;;;;;;;;;;;;;16.26;46.22;100645.06;5098074;28;1034;-56
2023/11/21 05:29:23;;;;;;;;;;;;;;;17.38;45.18;100636.84;5098162;28;1137;-55
2023/11/21 05:31:48;;;;;;;;;;;;;;;16.96;45.96;100641.69;5109853;28;1138;-58
2023/11/21 05:34:14;;;;;;;;;;;;;;;16.21;47.55;100636.81;5112813;28;1081;-58
2023/11/21 05:36:41;;;;;;;;;;;;;;;15.82;48.36;100632.69;5102936;28;2257;-58
2023/11/21 05:39:06;;;;;;;;;;;;;;;15.56;48.64;100640.81;5098535;28;1986;-58
2023/11/21 05:41:32;;;;;;;;;;;;;;;16.52;46.55;100637.63;5098063;28;1053;-58
2023/11/21 05:43:57;;;;;;;;;;;;;;;17.42;44.18;100633.25;5103800;28;1131;-57
2023/11/21 05:46:23;;;;;;;;;;;;;;;16.37;46.76;100643.13;5111239;28;1038;-57
2023/11/21 05:48:48;;;;;;;;;;;;;;;15.98;47.55;100644.50;5097912;28;1493;-57
2023/11/21 05:51:14;;;;;;;;;;;;;;;16.36;46.76;100658.75;5079670;28;1166;-56
2023/11/21 05:53:39;;;;;;;;;;;;;;;17.45;44.14;100654.66;5097980;28;1129;-57
2023/11/21 05:56:05;;;;;;;;;;;;;;;16.46;46.15;100655.19;5101832;28;1350;-57
2023/11/21 05:58:31;;;;;;;;;;;;;;;16.02;47.33;100645.59;5106430;28;1913;-54
2023/11/21 06:00:57;;;;;;;;;;;;;;;15.84;47.84;100662.56;5096955;28;1074;-56
2023/11/21 06:03:23;;;;;;;;;;;;;;;17.23;44.63;100656.97;5109921;28;1014;-56
2023/11/21 06:05:48;;;;;;;;;;;;;;;16.83;45.31;100658.69;5086201;28;1181;-57
2023/11/21 06:08:16;;;;;;;;;;;;;;;16.23;46.66;100662.06;5117747;28;1045;-57
2023/11/21 06:10:43;;;;;;;;;;;;;;;16.31;46.52;100663.44;5097419;28;1058;-58
2023/11/21 06:13:10;;;;;;;;;;;;;;;17.55;43.51;100669.47;5102191;28;1113;-58
2023/11/21 06:15:35;;;;;;;;;;;;;;;16.61;45.57;100673.56;5111169;28;1104;-58
2023/11/21 06:18:01;;;;;;;;;;;;;;;16.20;46.81;100684.53;5105859;28;1902;-58
2023/11/21 06:20:27;;;;;;;;;;;;;;;15.92;47.32;100678.47;5116974;28;1045;-57
2023/11/21 06:22:53;;;;;;;;;;;;;;;16.88;45.26;100672.44;5117314;28;1386;-57
2023/11/21 06:25:19;;;;;;;;;;;;;;;17.22;44.38;100680.88;5114924;28;1125;-57
2023/11/21 06:27:47;;;;;;;;;;;;;;;16.39;46.17;100693.88;5097438;28;1131;-57
2023/11/21 06:30:13;;;;;;;;;;;;;;;16.10;46.85;100684.53;5112759;28;1327;-58
2023/11/21 06:32:45;;;;;;;;;;;;;;;15.83;47.27;100685.59;5105645;28;1098;-57
2023/11/21 06:35:11;;;;;;;;;;;;;;;17.07;44.77;100675.44;5097493;28;1081;-57
2023/11/21 06:37:36;;;;;;;;;;;;;;;17.05;44.61;100667.47;5109370;28;1901;-58
2023/11/21 06:40:04;;;;;;;;;;;;;;;16.37;46.24;100674.13;5098101;28;1156;-58
2023/11/21 06:42:29;;;;;;;;;;;;;;;16.07;46.73;100681.25;5097125;28;1131;-57
2023/11/21 06:44:58;;;;;;;;;;;;;;;17.26;44.05;100678.38;5103085;28;1102;-58
2023/11/21 06:47:29;;;;;;;;;;;;;;;16.97;44.79;100676.28;5103400;28;872;-58
2023/11/21 06:49:54;;;;;;;;;;;;;;;16.36;46.13;100677.16;5103835;28;1115;-57
2023/11/21 06:52:20;;;;;;;;;;;;;;;16.04;46.85;100665.31;5103258;28;1181;-59
2023/11/21 06:54:47;;;;;;;;;;;;;;;17.32;44.04;100657.19;5113718;28;1403;-58
2023/11/21 06:57:13;;;;;;;;;;;;;;;16.81;45.14;100663.66;5110816;28;1393;-58
2023/11/21 06:59:38;;;;;;;;;;;;;;;16.37;46.17;100665.91;5104859;28;1913;-58
2023/11/21 07:02:06;;;;;;;;;;;;;;;16.08;46.64;100660.13;5110504;28;1146;-58
2023/11/21 07:04:32;;;;;;;;;;;;;;;16.86;45.31;100669.16;5108302;28;1105;-57
2023/11/21 07:06:58;;;;;;;;;;;;;;;17.39;43.69;100666.81;5103407;28;1157;-57
2023/11/21 07:09:24;;;;;;;;;;;;;;;16.56;45.59;100668.09;5104681;28;1093;-58
2023/11/21 07:11:49;;;;;;;;;;;;;;;16.22;46.31;100660.41;5095475;28;1023;-58
2023/11/21 07:14:16;;;;;;;;;;;;;;;15.96;46.92;100654.91;5096534;28;1122;-57
2023/11/21 07:16:41;;;;;;;;;;;;;;;16.91;44.86;100649.94;5109949;28;1057;-57
2023/11/21 07:19:07;;;;;;;;;;;;;;;17.19;44.22;100656.69;5108444;28;1980;-55
2023/11/21 07:21:33;;;;;;;;;;;;;;;16.46;45.86;100663.44;5097985;28;1053;-57
2023/11/21 07:23:59;;;;;;;;;;;;;;;16.13;46.49;100651.06;5096530;28;1021;-56
2023/11/21 07:26:25;;;;;;;;;;;;;;;16.06;47.07;100646.69;5109707;28;1129;-55
2023/11/21 07:28:51;;;;;;;;;;;;;;;17.42;43.83;100644.25;5107588;28;1327;-55
2023/11/21 07:31:17;;;;;;;;;;;;;;;16.93;44.57;100648.56;5100608;28;1098;-56
2023/11/21 07:33:42;;;;;;;;;;;;;;;16.37;46.12;100654.94;5099189;28;1070;-56
2023/11/21 07:36:08;;;;;;;;;;;;;;;16.08;46.76;100652.72;5101812;28;1093;-54
2023/11/21 07:38:33;;;;;;;;;;;;;;;15.94;46.99;100648.06;5101629;28;1990;-55
2023/11/21 07:41:01;;;;;;;;;;;;;;;16.83;45.43;100650.47;5101776;28;991;-53
2023/11/21 07:43:26;;;;;;;;;;;;;;;16.93;44.82;100658.72;5095663;28;1264;-55
2023/11/21 07:45:52;;;;;;;;;;;;;;;16.32;46.31;100654.91;5098446;28;1114;-56
2023/11/21 07:48:17;;;;;;;;;;;;;;;16.04;46.77;100662.59;5096615;28;1022;-55
2023/11/21 07:50:43;;;;;;;;;;;;;;;16.71;45.63;100672.75;5104158;28;966;-55
2023/11/21 07:53:09;;;;;;;;;;;;;;;17.38;43.75;100681.66;5099680;28;1150;-54
2023/11/21 07:55:36;;;;;;;;;;;;;;;16.48;45.86;100682.34;5115043;28;1033;-55
2023/11/21 07:58:01;;;;;;;;;;;;;;;16.21;46.35;100677.97;5098103;28;1913;-54
2023/11/21 08:00:30;;;;;;;;;;;;;;;15.98;47.16;100671.91;5095994;28;978;-57
2023/11/21 08:02:55;;;;;;;;;;;;;;;17.06;44.53;100673.78;5095534;28;1367;-57
2023/11/21 08:05:21;;;;;;;;;;;;;;;16.90;44.67;100665.59;5104195;28;1386;-57
2023/11/21 08:07:46;;;;;;;;;;;;;;;16.34;46.23;100669.22;5108847;28;1109;-57
2023/11/21 08:10:12;;;;;;;;;;;;;;;16.09;46.59;100664.53;5107171;28;1399;-56
2023/11/21 08:12:38;;;;;;;;;;;;;;;16.66;45.67;100665.34;5099802;28;1090;-57
2023/11/21 08:15:05;;;;;;;;;;;;;;;17.68;43.06;100652.34;5106795;28;1406;-56
2023/11/21 08:17:32;;;;;;;;;;;;;;;16.67;45.19;100650.50;5107699;28;1917;-57
2023/11/21 08:19:58;;;;;;;;;;;;;;;16.25;46.44;100648.88;5104814;28;1373;-57
2023/11/21 08:22:24;;;;;;;;;;;;;;;16.07;46.83;100663.97;5105886;28;1145;-57
2023/11/21 08:24:50;;;;;;;;;;;;;;;16.57;45.90;100678.78;5105092;28;1475;-58
2023/11/21 08:27:16;;;;;;;;;;;;;;;17.43;43.75;100676.13;5110445;28;1050;-58
2023/11/21 08:29:42;;;;;;;;;;;;;;;16.58;45.67;100677.69;5106455;28;1343;-57
2023/11/21 08:32:07;;;;;;;;;;;;;;;16.23;46.24;100662.88;5109641;28;1125;-56
2023/11/21 08:34:33;;;;;;;;;;;;;;;16.39;46.12;100676.59;5105059;28;1370;-57
2023/11/21 08:36:58;;;;;;;;;;;;;;;17.53;43.55;100666.19;5104145;28;1122;-56
2023/11/21 08:39:24;;;;;;;;;;;;;;;16.66;45.54;100670.00;5103931;28;1976;-55
2023/11/21 08:41:50;;;;;;;;;;;;;;;16.31;46.17;100666.19;5106587;28;1106;-55
2023/11/21 08:44:17;;;;;;;;;;;;;;;16.74;45.39;100669.44;5105675;28;1130;-55
2023/11/21 08:46:46;;;;;;;;;;;;;;;17.11;44.43;100668.28;5111172;28;1409;-56
2023/11/21 08:49:12;;;;;;;;;;;;;;;16.43;45.74;100666.72;5113070;28;1076;-55
2023/11/21 08:51:38;;;;;;;;;;;;;;;16.22;46.65;100668.66;5103260;28;1363;-56
2023/11/21 08:54:07;;;;;;;;;;;;;;;16.04;46.94;100670.81;5099027;28;1230;-54
2023/11/21 08:56:33;;;;;;;;;;;;;;;17.21;44.30;100667.44;5112631;28;1070;-55
2023/11/21 08:59:00;;;;;;;;;;;;;;;16.85;44.77;100659.25;5080646;28;1902;-55
2023/11/21 09:01:25;;;;;;;;;;;;;;;16.36;46.00;100669.75;5101996;28;1193;-56
2023/11/21 09:03:51;;;;;;;;;;;;;;;16.86;45.14;100652.69;5110022;28;1112;-56
2023/11/21 09:06:16;;;;;;;;;;;;;;;17.31;43.89;100639.91;5108984;28;1272;-55
2023/11/21 09:08:43;;;;;;;;;;;;;;;16.58;45.80;100649.44;5098511;28;1109;-61
2023/11/21 09:11:08;;;;;;;;;;;;;;;16.27;46.40;100635.75;5100973;28;1499;-57
2023/11/21 09:13:34;;;;;;;;;;;;;;;16.14;46.67;100633.53;5101306;28;1304;-55
2023/11/21 09:16:00;;;;;;;;;;;;;;;15.97;47.25;100623.63;5104139;28;1149;-53
2023/11/21 09:18:25;;;;;;;;;;;;;;;16.86;44.93;100633.44;5101602;28;1901;-56
2023/11/21 09:20:51;;;;;;;;;;;;;;;17.48;43.63;100627.72;5103272;28;1078;-58
2023/11/21 09:23:16;;;;;;;;;;;;;;;16.62;45.50;100624.97;5100458;28;1121;-59
2023/11/21 09:25:45;;;;;;;;;;;;;;;16.24;46.30;100625.28;5099776;28;1105;-57
2023/11/21 09:28:11;;;;;;;;;;;;;;;16.10;46.66;100621.47;5099841;28;1097;-56
2023/11/21 09:30:38;;;;;;;;;;;;;;;16.68;45.46;100618.41;5100472;28;1081;-56
2023/11/21 09:33:05;;;;;;;;;;;;;;;17.31;44.02;100612.41;5099162;28;1054;-56
2023/11/21 09:35:31;;;;;;;;;;;;;;;16.53;45.67;100613.75;5102287;28;1105;-56
2023/11/21 09:37:57;;;;;;;;;;;;;;;16.23;46.47;100601.72;5108657;28;1901;-56
2023/11/21 09:40:22;;;;;;;;;;;;;;;17.53;43.55;100605.69;5101064;28;1101;-56
2023/11/21 09:42:49;;;;;;;;;;;;;;;16.78;45.15;100596.38;5116243;28;1393;-57
2023/11/21 09:45:21;;;;;;;;;;;;;;;16.34;46.36;100603.34;5097713;28;1370;-56
2023/11/21 09:47:46;;;;;;;;;;;;;;;16.11;46.70;100599.22;5113423;28;1370;-57
2023/11/21 09:50:12;;;;;;;;;;;;;;;16.05;47.01;100606.63;5117171;28;1409;-56
2023/11/21 09:52:57;;;;;;;;;;;;;;;17.47;43.91;100593.91;5104017;28;1295;-56
2023/11/21 09:55:23;;;;;;;;;;;;;;;16.93;44.64;100582.63;5099002;28;1126;-56
2023/11/21 09:57:49;;;;;;;;;;;;;;;16.43;45.97;100590.69;5100503;28;1969;-57
2023/11/21 10:00:17;;;;;;;;;;;;;;;16.20;46.47;100588.53;5108530;28;1114;-57
2023/11/21 10:02:43;;;;;;;;;;;;;;;16.65;45.87;100581.34;5092848;28;1038;-56
2023/11/21 10:05:11;;;;;;;;;;;;;;;17.58;43.34;100578.19;5098034;28;1153;-57
2023/11/21 10:07:37;;;;;;;;;;;;;;;16.67;45.47;100584.59;5080821;28;1065;-56
2023/11/21 10:10:02;;;;;;;;;;;;;;;16.33;46.31;100581.69;5100346;28;1117;-56
2023/11/21 10:12:28;;;;;;;;;;;;;;;16.16;46.69;100581.94;5110738;28;1043;-56
2023/11/21 10:14:54;;;;;;;;;;;;;;;17.30;44.38;100580.53;5097622;28;1025;-55
2023/11/21 10:17:19;;;;;;;;;;;;;;;16.98;44.63;100567.25;5078895;28;1059;-55
2023/11/21 10:19:48;;;;;;;;;;;;;;;16.46;45.87;100567.38;5088656;28;1914;-56
2023/11/21 10:22:15;;;;;;;;;;;;;;;16.21;46.56;100566.28;5091577;28;1145;-56
2023/11/21 10:24:40;;;;;;;;;;;;;;;16.23;46.64;100568.78;5111615;28;1118;-56
2023/11/21 10:27:06;;;;;;;;;;;;;;;17.52;43.75;100569.16;5109064;28;1057;-55
2023/11/21 10:29:35;;;;;;;;;;;;;;;16.68;45.66;100568.97;5098474;28;1151;-56
2023/11/21 10:32:01;;;;;;;;;;;;;;;16.34;46.27;100567.69;5105275;28;1331;-56
2023/11/21 10:34:27;;;;;;;;;;;;;;;16.88;45.31;100563.41;5095665;28;1059;-56
2023/11/21 10:36:53;;;;;;;;;;;;;;;17.07;44.49;100566.38;5102779;28;1070;-56
2023/11/21 10:39:19;;;;;;;;;;;;;;;16.50;45.86;100567.66;5101969;28;1921;-55
2023/11/21 10:41:46;;;;;;;;;;;;;;;16.28;46.68;100556.97;5103574;28;1058;-55
2023/11/21 10:44:14;;;;;;;;;;;;;;;16.12;47.02;100556.16;5111013;28;1382;-55
2023/11/21 10:46:40;;;;;;;;;;;;;;;16.78;45.60;100566.19;5091634;28;1379;-55
2023/11/21 10:49:06;;;;;;;;;;;;;;;17.59;43.23;100549.59;5096647;28;1428;-55
2023/11/21 10:51:32;;;;;;;;;;;;;;;16.75;45.49;100551.09;5091363;28;1339;-56
2023/11/21 10:53:59;;;;;;;;;;;;;;;16.38;46.12;100557.78;5109060;28;1343;-55
2023/11/21 10:56:25;;;;;;;;;;;;;;;16.22;46.77;100554.22;5090134;28;1280;-55
2023/11/21 10:58:54;;;;;;;;;;;;;;;17.47;43.99;100546.38;5109214;28;1976;-57
2023/11/21 11:01:22;;;;;;;;;;;;;;;16.85;45.46;100535.69;5115320;28;1053;-54
2023/11/21 11:03:48;;;;;;;;;;;;;;;16.45;46.28;100526.47;5112180;28;1339;-56
2023/11/21 11:06:14;;;;;;;;;;;;;;;16.23;46.78;100531.19;5114125;28;1335;-55
2023/11/21 11:08:40;;;;;;;;;;;;;;;16.08;47.18;100539.44;5110822;28;1329;-55
2023/11/21 11:11:06;;;;;;;;;;;;;;;16.96;44.98;100545.53;5113424;28;1315;-56
2023/11/21 11:13:31;;;;;;;;;;;;;;;16.91;44.90;100535.41;5102790;28;1327;-55
2023/11/21 11:16:01;;;;;;;;;;;;;;;16.40;46.30;100530.06;5104422;28;1367;-53
2023/11/21 11:18:29;;;;;;;;;;;;;;;16.17;46.73;100531.47;5106746;28;1913;-53
2023/11/21 11:20:57;;;;;;;;;;;;;;;16.38;46.45;100522.13;5096867;28;1066;-56
2023/11/21 11:23:41;;;;;;;;;;;;;;;17.38;44.10;100524.97;5096366;28;1093;-55
2023/11/21 11:26:10;;;;;;;;;;;;;;;16.55;45.93;100507.22;5114553;28;950;-56
2023/11/21 11:28:43;;;;;;;;;;;;;;;16.26;46.81;100518.84;5096107;28;1126;-51
2023/11/21 11:31:25;;;;;;;;;;;;;;;16.05;47.03;100512.56;5096287;28;1046;-55
2023/11/21 11:33:55;;;;;;;;;;;;;;;17.29;44.50;100504.69;5096459;28;1200;-55
2023/11/21 11:36:24;;;;;;;;;;;;;;;16.83;45.36;100504.91;5096340;28;1130;-57
2023/11/21 11:38:49;;;;;;;;;;;;;;;16.40;46.57;100503.44;5095785;28;1914;-55
2023/11/21 11:41:23;;;;;;;;;;;;;;;16.10;46.88;100504.31;5109673;28;1365;-55
2023/11/21 11:43:49;;;;;;;;;;;;;;;15.98;47.13;100504.63;5107061;28;1047;-52
2023/11/21 11:46:15;;;;;;;;;;;;;;;16.51;46.16;100503.41;5080830;28;1141;-54
2023/11/21 11:48:40;;;;;;;;;;;;;;;17.60;43.58;100499.00;5095385;28;1276;-55
2023/11/21 11:51:08;;;;;;;;;;;;;;;16.74;45.49;100486.28;5096475;28;1038;-56
2023/11/21 11:54:00;;;;;;;;;;;;;;;16.37;46.40;100487.53;5096380;28;1101;-56
2023/11/21 11:56:34;;;;;;;;;;;;;;;16.58;45.97;100495.72;5100128;28;2528;-55
2023/11/21 11:59:02;;;;;;;;;;;;;;;16.98;45.08;100491.13;5105239;28;1905;-53
2023/11/21 12:01:29;;;;;;;;;;;;;;;16.43;46.32;100496.56;5102311;28;1393;-54
2023/11/21 12:04:31;;;;;;;;;;;;;;;16.18;47.03;100498.28;5104998;28;1176;-55
2023/11/21 12:06:57;;;;;;;;;;;;;;;17.67;44.92;100496.72;5082477;28;1043;-58
2023/11/21 12:09:22;;;;;;;;;;;;;;;17.68;45.41;100498.34;5106092;28;1134;-53
2023/11/21 12:11:48;;;;;;;;;;;;;;;17.23;46.97;100497.59;5120597;28;1033;-53
2023/11/21 12:14:14;;;;;;;;;;;;;;;18.47;44.60;100500.91;5105764;28;1077;-56
2023/11/21 12:16:39;;;;;;;;;;;;;;;17.71;46.57;100497.81;5106438;28;1013;-56
2023/11/21 12:19:05;;;;;;;;;;;;;;;17.56;47.65;100492.44;5088105;28;1914;-56
2023/11/21 12:21:32;;;;;;;;;;;;;;;17.44;47.88;100487.28;5105636;28;1073;-57
2023/11/21 12:23:57;;;;;;;;;;;;;;;17.33;48.32;100486.53;5080632;28;911;-60
2023/11/21 12:26:26;;;;;;;;;;;;;;;17.62;48.26;100477.53;5107280;28;900;-56
2023/11/21 12:28:58;;;;;;;;;;;;;;;18.29;47.32;100490.66;5109683;28;1109;-59
2023/11/21 12:31:23;;;;;;;;;;;;;;;17.12;49.61;100477.59;5101143;28;1081;-56
2023/11/21 12:33:49;;;;;;;;;;;;;;;16.90;50.74;100484.31;5103986;28;1362;-57
2023/11/21 12:36:16;;;;;;;;;;;;;;;18.28;47.56;100478.00;5098910;28;1046;-60
2023/11/21 12:38:42;;;;;;;;;;;;;;;18.74;46.28;100473.88;5097727;28;1992;-59
2023/11/21 12:41:07;;;;;;;;;;;;;;;19.02;45.56;100488.69;5098482;28;1126;-58
2023/11/21 12:43:33;;;;;;;;;;;;;;;19.29;45.25;100474.25;5099045;28;1102;-59
2023/11/21 12:46:09;;;;;;;;;;;;;;;19.49;45.07;100470.34;5081135;28;1114;-50